sensor_id;sensor_type;location;lat;lon;timestamp;P1;durP1;ratioP1;P2;durP2;ratioP2
54985;SDS011;40885;53.070;6.228;2022-08-19T09:22:56;16.73;;;14.40;;
54985;SDS011;40885;53.070;6.228;2022-08-19T09:25:22;17.20;;;15.38;;
54985;SDS011;40885;53.070;6.228;2022-08-19T09:27:48;20.38;;;14.68;;
54985;SDS011;40885;53.070;6.228;2022-08-19T09:30:18;18.27;;;16.42;;
54985;SDS011;40885;53.070;6.228;2022-08-19T09:32:49;19.30;;;16.67;;
54985;SDS011;40885;53.070;6.228;2022-08-19T09:35:18;18.92;;;17.08;;
54985;SDS011;40885;53.070;6.228;2022-08-19T09:37:47;20.23;;;17.38;;
54985;SDS011;40885;53.070;6.228;2022-08-19T09:40:14;20.77;;;17.38;;
54985;SDS011;40885;53.070;6.228;2022-08-19T09:42:42;17.77;;;15.98;;
54985;SDS011;40885;53.070;6.228;2022-08-19T09:45:09;19.58;;;16.65;;
54985;SDS011;40885;53.070;6.228;2022-08-19T09:47:36;18.98;;;17.13;;
54985;SDS011;40885;53.070;6.228;2022-08-19T09:50:06;22.92;;;17.80;;
54985;SDS011;40885;53.070;6.228;2022-08-19T09:52:34;21.48;;;19.17;;
54985;SDS011;40885;53.070;6.228;2022-08-19T09:55:05;19.92;;;17.88;;
54985;SDS011;40885;53.070;6.228;2022-08-19T09:57:32;15.48;;;13.88;;
54985;SDS011;40885;53.070;6.228;2022-08-19T09:59:59;16.45;;;14.75;;
54985;SDS011;40885;53.070;6.228;2022-08-19T10:02:25;24.17;;;16.08;;
54985;SDS011;40885;53.070;6.228;2022-08-19T10:04:51;17.83;;;14.43;;
54985;SDS011;40885;53.070;6.228;2022-08-19T10:07:36;18.77;;;15.25;;
54985;SDS011;40885;53.070;6.228;2022-08-19T10:10:03;18.92;;;14.73;;
54985;SDS011;40885;53.070;6.228;2022-08-19T10:12:31;17.42;;;15.02;;
54985;SDS011;40885;53.070;6.228;2022-08-19T10:14:57;22.27;;;15.02;;
54985;SDS011;40885;53.070;6.228;2022-08-19T10:17:24;14.35;;;12.57;;
54985;SDS011;40885;53.070;6.228;2022-08-19T10:19:50;16.92;;;12.88;;
54985;SDS011;40885;53.070;6.228;2022-08-19T10:22:17;16.83;;;13.38;;
54985;SDS011;40885;53.070;6.228;2022-08-19T10:24:43;11.20;;;10.10;;
54985;SDS011;40885;53.070;6.228;2022-08-19T10:27:12;13.48;;;11.55;;
54985;SDS011;40885;53.070;6.228;2022-08-19T10:29:39;14.43;;;9.63;;
54985;SDS011;40885;53.070;6.228;2022-08-19T10:32:06;15.20;;;10.15;;
54985;SDS011;40885;53.070;6.228;2022-08-19T10:34:34;13.35;;;9.32;;
54985;SDS011;40885;53.070;6.228;2022-08-19T10:37:04;11.80;;;9.75;;
54985;SDS011;40885;53.070;6.228;2022-08-19T10:39:32;12.73;;;10.02;;
54985;SDS011;40885;53.070;6.228;2022-08-19T10:42:03;11.13;;;9.20;;
54985;SDS011;40885;53.070;6.228;2022-08-19T10:44:31;16.48;;;10.07;;
54985;SDS011;40885;53.070;6.228;2022-08-19T10:47:00;13.77;;;9.60;;
54985;SDS011;40885;53.070;6.228;2022-08-19T10:49:27;14.52;;;9.73;;
54985;SDS011;40885;53.070;6.228;2022-08-19T10:51:53;10.15;;;7.95;;
54985;SDS011;40885;53.070;6.228;2022-08-19T10:54:38;11.18;;;8.77;;
54985;SDS011;40885;53.070;6.228;2022-08-19T10:57:22;7.97;;;7.15;;
54985;SDS011;40885;53.070;6.228;2022-08-19T10:59:54;8.70;;;7.13;;
54985;SDS011;40885;53.070;6.228;2022-08-19T11:02:21;10.93;;;8.00;;
54985;SDS011;40885;53.070;6.228;2022-08-19T11:04:47;8.73;;;7.32;;
54985;SDS011;40885;53.070;6.228;2022-08-19T11:07:15;13.15;;;7.60;;
54985;SDS011;40885;53.070;6.228;2022-08-19T11:09:42;14.73;;;7.60;;
54985;SDS011;40885;53.070;6.228;2022-08-19T11:12:08;11.80;;;6.78;;
54985;SDS011;40885;53.070;6.228;2022-08-19T11:14:35;15.80;;;7.35;;
54985;SDS011;40885;53.070;6.228;2022-08-19T11:17:04;15.82;;;6.13;;
54985;SDS011;40885;53.070;6.228;2022-08-19T11:19:31;11.77;;;6.90;;
54985;SDS011;40885;53.070;6.228;2022-08-19T11:21:58;11.90;;;6.68;;
54985;SDS011;40885;53.070;6.228;2022-08-19T11:24:27;12.15;;;7.00;;
54985;SDS011;40885;53.070;6.228;2022-08-19T11:26:54;7.70;;;6.28;;
54985;SDS011;40885;53.070;6.228;2022-08-19T11:29:26;12.38;;;6.57;;
54985;SDS011;40885;53.070;6.228;2022-08-19T11:31:53;8.95;;;7.60;;
54985;SDS011;40885;53.070;6.228;2022-08-19T11:34:23;12.77;;;6.95;;
54985;SDS011;40885;53.070;6.228;2022-08-19T11:36:52;10.02;;;6.57;;
54985;SDS011;40885;53.070;6.228;2022-08-19T11:39:23;8.30;;;7.13;;
54985;SDS011;40885;53.070;6.228;2022-08-19T11:41:50;13.75;;;6.53;;
54985;SDS011;40885;53.070;6.228;2022-08-19T11:44:16;10.43;;;6.75;;
54985;SDS011;40885;53.070;6.228;2022-08-19T11:46:42;10.70;;;8.00;;
54985;SDS011;40885;53.070;6.228;2022-08-19T11:49:12;9.02;;;7.47;;
54985;SDS011;40885;53.070;6.228;2022-08-19T11:51:38;12.77;;;7.25;;
54985;SDS011;40885;53.070;6.228;2022-08-19T11:54:07;10.02;;;7.82;;
54985;SDS011;40885;53.070;6.228;2022-08-19T11:56:33;11.00;;;7.70;;
54985;SDS011;40885;53.070;6.228;2022-08-19T11:59:00;9.50;;;7.40;;
54985;SDS011;40885;53.070;6.228;2022-08-19T12:01:26;10.18;;;8.38;;
54985;SDS011;40885;53.070;6.228;2022-08-19T12:03:53;10.88;;;7.70;;
54985;SDS011;40885;53.070;6.228;2022-08-19T12:06:21;11.13;;;8.50;;
54985;SDS011;40885;53.070;6.228;2022-08-19T12:08:54;15.10;;;9.82;;
54985;SDS011;40885;53.070;6.228;2022-08-19T12:11:28;15.60;;;10.98;;
54985;SDS011;40885;53.070;6.228;2022-08-19T12:13:54;16.38;;;11.35;;
54985;SDS011;40885;53.070;6.228;2022-08-19T12:16:22;16.98;;;10.35;;
54985;SDS011;40885;53.070;6.228;2022-08-19T12:18:50;14.48;;;11.45;;
54985;SDS011;40885;53.070;6.228;2022-08-19T12:21:17;20.05;;;13.02;;
54985;SDS011;40885;53.070;6.228;2022-08-19T12:23:49;20.25;;;13.52;;
54985;SDS011;40885;53.070;6.228;2022-08-19T12:26:16;19.00;;;14.38;;
54985;SDS011;40885;53.070;6.228;2022-08-19T12:28:42;18.88;;;14.50;;
54985;SDS011;40885;53.070;6.228;2022-08-19T12:31:09;22.02;;;15.13;;
54985;SDS011;40885;53.070;6.228;2022-08-19T12:33:37;21.73;;;14.73;;
54985;SDS011;40885;53.070;6.228;2022-08-19T12:36:04;19.80;;;15.32;;
54985;SDS011;40885;53.070;6.228;2022-08-19T12:38:32;18.55;;;14.68;;
54985;SDS011;40885;53.070;6.228;2022-08-19T12:40:59;19.55;;;14.68;;
54985;SDS011;40885;53.070;6.228;2022-08-19T12:43:26;30.95;;;20.02;;
54985;SDS011;40885;53.070;6.228;2022-08-19T12:45:52;24.52;;;16.00;;
54985;SDS011;40885;53.070;6.228;2022-08-19T12:48:18;23.30;;;16.95;;
54985;SDS011;40885;53.070;6.228;2022-08-19T12:50:44;26.98;;;18.60;;
54985;SDS011;40885;53.070;6.228;2022-08-19T12:53:12;23.23;;;17.55;;
54985;SDS011;40885;53.070;6.228;2022-08-19T12:55:38;32.58;;;22.75;;
54985;SDS011;40885;53.070;6.228;2022-08-19T12:58:05;29.45;;;21.10;;
54985;SDS011;40885;53.070;6.228;2022-08-19T13:00:31;32.47;;;22.75;;
54985;SDS011;40885;53.070;6.228;2022-08-19T13:02:59;31.65;;;21.30;;
54985;SDS011;40885;53.070;6.228;2022-08-19T13:05:26;31.73;;;22.17;;
54985;SDS011;40885;53.070;6.228;2022-08-19T13:07:56;30.23;;;22.27;;
54985;SDS011;40885;53.070;6.228;2022-08-19T13:10:25;32.47;;;22.15;;
54985;SDS011;40885;53.070;6.228;2022-08-19T13:12:54;33.70;;;23.05;;
54985;SDS011;40885;53.070;6.228;2022-08-19T13:15:22;30.45;;;23.15;;
54985;SDS011;40885;53.070;6.228;2022-08-19T13:17:49;29.20;;;22.67;;
54985;SDS011;40885;53.070;6.228;2022-08-19T13:20:18;32.13;;;24.10;;
54985;SDS011;40885;53.070;6.228;2022-08-19T13:22:45;32.70;;;22.05;;
54985;SDS011;40885;53.070;6.228;2022-08-19T13:25:13;28.83;;;22.15;;
54985;SDS011;40885;53.070;6.228;2022-08-19T13:27:42;32.03;;;22.38;;
54985;SDS011;40885;53.070;6.228;2022-08-19T13:30:09;29.35;;;22.27;;
54985;SDS011;40885;53.070;6.228;2022-08-19T13:32:56;29.50;;;21.98;;
54985;SDS011;40885;53.070;6.228;2022-08-19T13:38:04;34.40;;;23.65;;
54985;SDS011;40885;53.070;6.228;2022-08-19T13:40:30;34.55;;;23.92;;
54985;SDS011;40885;53.070;6.228;2022-08-19T13:43:01;35.58;;;25.98;;
54985;SDS011;40885;53.070;6.228;2022-08-19T13:45:28;31.67;;;24.80;;
54985;SDS011;40885;53.070;6.228;2022-08-19T13:47:58;31.13;;;23.33;;
54985;SDS011;40885;53.070;6.228;2022-08-19T13:50:28;29.65;;;22.20;;
54985;SDS011;40885;53.070;6.228;2022-08-19T13:52:56;24.23;;;21.00;;
54985;SDS011;40885;53.070;6.228;2022-08-19T13:55:23;30.33;;;20.55;;
54985;SDS011;40885;53.070;6.228;2022-08-19T13:57:50;24.75;;;16.98;;
54985;SDS011;40885;53.070;6.228;2022-08-19T14:00:20;20.15;;;15.70;;
54985;SDS011;40885;53.070;6.228;2022-08-19T14:02:47;22.08;;;14.80;;
54985;SDS011;40885;53.070;6.228;2022-08-19T14:05:16;16.58;;;12.27;;
54985;SDS011;40885;53.070;6.228;2022-08-19T14:07:43;17.05;;;12.02;;
54985;SDS011;40885;53.070;6.228;2022-08-19T14:10:10;17.15;;;12.15;;
54985;SDS011;40885;53.070;6.228;2022-08-19T14:12:37;13.43;;;9.93;;
54985;SDS011;40885;53.070;6.228;2022-08-19T14:15:05;13.57;;;8.82;;
54985;SDS011;40885;53.070;6.228;2022-08-19T14:17:31;14.23;;;8.18;;
54985;SDS011;40885;53.070;6.228;2022-08-19T14:20:00;8.65;;;5.68;;
54985;SDS011;40885;53.070;6.228;2022-08-19T14:22:29;6.00;;;4.20;;
54985;SDS011;40885;53.070;6.228;2022-08-19T14:25:00;7.15;;;4.07;;
54985;SDS011;40885;53.070;6.228;2022-08-19T14:27:38;5.15;;;3.75;;
54985;SDS011;40885;53.070;6.228;2022-08-19T14:30:10;5.43;;;3.90;;
54985;SDS011;40885;53.070;6.228;2022-08-19T14:32:40;6.75;;;3.17;;
54985;SDS011;40885;53.070;6.228;2022-08-19T14:35:08;3.53;;;3.22;;
54985;SDS011;40885;53.070;6.228;2022-08-19T14:37:35;5.38;;;3.53;;
54985;SDS011;40885;53.070;6.228;2022-08-19T14:40:01;4.63;;;2.47;;
54985;SDS011;40885;53.070;6.228;2022-08-19T14:42:28;4.53;;;2.90;;
54985;SDS011;40885;53.070;6.228;2022-08-19T14:44:57;4.70;;;3.20;;
54985;SDS011;40885;53.070;6.228;2022-08-19T14:47:23;5.20;;;3.28;;
54985;SDS011;40885;53.070;6.228;2022-08-19T14:49:49;6.13;;;3.60;;
54985;SDS011;40885;53.070;6.228;2022-08-19T14:52:15;6.93;;;4.53;;
54985;SDS011;40885;53.070;6.228;2022-08-19T14:54:41;8.82;;;4.75;;
54985;SDS011;40885;53.070;6.228;2022-08-19T14:57:10;11.30;;;6.78;;
54985;SDS011;40885;53.070;6.228;2022-08-19T14:59:37;11.55;;;7.65;;
54985;SDS011;40885;53.070;6.228;2022-08-19T15:02:03;14.02;;;8.30;;
54985;SDS011;40885;53.070;6.228;2022-08-19T15:04:29;13.50;;;10.20;;
54985;SDS011;40885;53.070;6.228;2022-08-19T15:06:55;13.55;;;10.43;;
54985;SDS011;40885;53.070;6.228;2022-08-19T15:09:20;18.48;;;11.75;;
54985;SDS011;40885;53.070;6.228;2022-08-19T15:11:47;16.08;;;11.98;;
54985;SDS011;40885;53.070;6.228;2022-08-19T15:14:13;19.45;;;12.68;;
54985;SDS011;40885;53.070;6.228;2022-08-19T15:16:40;16.90;;;12.45;;
54985;SDS011;40885;53.070;6.228;2022-08-19T15:19:06;18.02;;;12.38;;
54985;SDS011;40885;53.070;6.228;2022-08-19T15:21:32;13.10;;;11.68;;
54985;SDS011;40885;53.070;6.228;2022-08-19T15:23:58;15.38;;;12.23;;
54985;SDS011;40885;53.070;6.228;2022-08-19T15:26:25;18.30;;;12.05;;
54985;SDS011;40885;53.070;6.228;2022-08-19T15:28:53;21.48;;;12.80;;
54985;SDS011;40885;53.070;6.228;2022-08-19T15:31:19;18.55;;;12.25;;
54985;SDS011;40885;53.070;6.228;2022-08-19T15:33:47;17.70;;;11.93;;
54985;SDS011;40885;53.070;6.228;2022-08-19T15:36:13;16.98;;;12.30;;
54985;SDS011;40885;53.070;6.228;2022-08-19T15:38:40;16.13;;;12.35;;
54985;SDS011;40885;53.070;6.228;2022-08-19T15:41:13;19.05;;;12.20;;
54985;SDS011;40885;53.070;6.228;2022-08-19T15:43:48;20.38;;;12.55;;
54985;SDS011;40885;53.070;6.228;2022-08-19T15:46:25;20.63;;;12.70;;
54985;SDS011;40885;53.070;6.228;2022-08-19T15:48:53;20.48;;;11.60;;
54985;SDS011;40885;53.070;6.228;2022-08-19T15:51:20;15.27;;;11.50;;
54985;SDS011;40885;53.070;6.228;2022-08-19T15:53:46;14.48;;;12.00;;
54985;SDS011;40885;53.070;6.228;2022-08-19T15:56:12;16.30;;;11.13;;
54985;SDS011;40885;53.070;6.228;2022-08-19T15:58:39;19.23;;;11.15;;
54985;SDS011;40885;53.070;6.228;2022-08-19T16:01:23;21.88;;;11.00;;
54985;SDS011;40885;53.070;6.228;2022-08-19T16:03:56;13.82;;;10.88;;
54985;SDS011;40885;53.070;6.228;2022-08-19T16:06:46;19.92;;;12.55;;
54985;SDS011;40885;53.070;6.228;2022-08-19T16:09:21;21.42;;;11.60;;
54985;SDS011;40885;53.070;6.228;2022-08-19T16:11:57;15.85;;;11.50;;
54985;SDS011;40885;53.070;6.228;2022-08-19T16:14:25;16.27;;;11.65;;
54985;SDS011;40885;53.070;6.228;2022-08-19T16:16:51;15.63;;;11.73;;
54985;SDS011;40885;53.070;6.228;2022-08-19T16:19:17;17.40;;;12.27;;
54985;SDS011;40885;53.070;6.228;2022-08-19T16:21:45;15.80;;;11.50;;
54985;SDS011;40885;53.070;6.228;2022-08-19T16:24:14;16.63;;;11.93;;
54985;SDS011;40885;53.070;6.228;2022-08-19T16:26:42;17.98;;;11.98;;
54985;SDS011;40885;53.070;6.228;2022-08-19T16:29:09;16.20;;;11.93;;
54985;SDS011;40885;53.070;6.228;2022-08-19T16:31:35;18.30;;;11.55;;
54985;SDS011;40885;53.070;6.228;2022-08-19T16:34:02;18.10;;;9.27;;
54985;SDS011;40885;53.070;6.228;2022-08-19T16:36:28;13.45;;;10.68;;
54985;SDS011;40885;53.070;6.228;2022-08-19T16:38:55;11.93;;;10.35;;
54985;SDS011;40885;53.070;6.228;2022-08-19T16:41:21;15.25;;;9.68;;
54985;SDS011;40885;53.070;6.228;2022-08-19T16:43:47;11.65;;;9.98;;
54985;SDS011;40885;53.070;6.228;2022-08-19T16:46:16;14.75;;;10.27;;
54985;SDS011;40885;53.070;6.228;2022-08-19T16:48:43;23.13;;;11.38;;
54985;SDS011;40885;53.070;6.228;2022-08-19T16:51:10;12.00;;;9.27;;
54985;SDS011;40885;53.070;6.228;2022-08-19T16:53:37;9.98;;;6.95;;
54985;SDS011;40885;53.070;6.228;2022-08-19T16:56:04;4.18;;;3.53;;
54985;SDS011;40885;53.070;6.228;2022-08-19T16:58:31;4.72;;;3.20;;
54985;SDS011;40885;53.070;6.228;2022-08-19T17:00:58;4.53;;;3.00;;
54985;SDS011;40885;53.070;6.228;2022-08-19T17:03:26;4.85;;;3.13;;
54985;SDS011;40885;53.070;6.228;2022-08-19T17:05:53;4.65;;;2.92;;
54985;SDS011;40885;53.070;6.228;2022-08-19T17:08:21;4.47;;;2.80;;
54985;SDS011;40885;53.070;6.228;2022-08-19T17:10:50;4.60;;;2.55;;
54985;SDS011;40885;53.070;6.228;2022-08-19T17:13:21;5.07;;;2.20;;
54985;SDS011;40885;53.070;6.228;2022-08-19T17:15:49;3.40;;;2.00;;
54985;SDS011;40885;53.070;6.228;2022-08-19T17:18:16;3.13;;;2.20;;
54985;SDS011;40885;53.070;6.228;2022-08-19T17:20:42;3.08;;;2.35;;
54985;SDS011;40885;53.070;6.228;2022-08-19T17:23:11;5.63;;;2.10;;
54985;SDS011;40885;53.070;6.228;2022-08-19T17:25:37;3.78;;;2.22;;
54985;SDS011;40885;53.070;6.228;2022-08-19T17:28:07;3.30;;;2.10;;
54985;SDS011;40885;53.070;6.228;2022-08-19T17:30:35;1.52;;;1.38;;
54985;SDS011;40885;53.070;6.228;2022-08-19T17:33:01;2.53;;;1.45;;
54985;SDS011;40885;53.070;6.228;2022-08-19T17:35:28;1.73;;;1.60;;
54985;SDS011;40885;53.070;6.228;2022-08-19T17:37:54;1.52;;;1.42;;
54985;SDS011;40885;53.070;6.228;2022-08-19T17:40:20;2.05;;;1.30;;
54985;SDS011;40885;53.070;6.228;2022-08-19T17:42:46;2.22;;;1.48;;
54985;SDS011;40885;53.070;6.228;2022-08-19T17:45:12;5.75;;;1.50;;
54985;SDS011;40885;53.070;6.228;2022-08-19T17:47:38;2.60;;;1.38;;
54985;SDS011;40885;53.070;6.228;2022-08-19T17:50:08;3.53;;;1.80;;
54985;SDS011;40885;53.070;6.228;2022-08-19T17:52:37;3.47;;;1.80;;
54985;SDS011;40885;53.070;6.228;2022-08-19T17:55:03;2.00;;;1.60;;
54985;SDS011;40885;53.070;6.228;2022-08-19T17:57:30;1.90;;;1.27;;
54985;SDS011;40885;53.070;6.228;2022-08-19T17:59:56;5.40;;;2.05;;
54985;SDS011;40885;53.070;6.228;2022-08-19T18:02:22;5.38;;;1.90;;
54985;SDS011;40885;53.070;6.228;2022-08-19T18:04:48;3.35;;;1.58;;
54985;SDS011;40885;53.070;6.228;2022-08-19T18:07:14;2.97;;;1.95;;
54985;SDS011;40885;53.070;6.228;2022-08-19T18:09:45;3.95;;;2.00;;
54985;SDS011;40885;53.070;6.228;2022-08-19T18:12:19;3.13;;;2.08;;
54985;SDS011;40885;53.070;6.228;2022-08-19T18:14:50;3.50;;;1.90;;
54985;SDS011;40885;53.070;6.228;2022-08-19T18:17:16;3.50;;;1.60;;
54985;SDS011;40885;53.070;6.228;2022-08-19T18:19:44;3.20;;;1.80;;
54985;SDS011;40885;53.070;6.228;2022-08-19T18:22:33;4.68;;;1.95;;
54985;SDS011;40885;53.070;6.228;2022-08-19T18:25:00;4.22;;;1.60;;
54985;SDS011;40885;53.070;6.228;2022-08-19T18:27:28;2.35;;;1.60;;
54985;SDS011;40885;53.070;6.228;2022-08-19T18:29:54;1.98;;;1.50;;
54985;SDS011;40885;53.070;6.228;2022-08-19T18:32:24;4.03;;;1.83;;
54985;SDS011;40885;53.070;6.228;2022-08-19T18:34:51;3.17;;;2.03;;
54985;SDS011;40885;53.070;6.228;2022-08-19T18:37:17;5.80;;;2.33;;
54985;SDS011;40885;53.070;6.228;2022-08-19T18:39:43;3.60;;;2.13;;
54985;SDS011;40885;53.070;6.228;2022-08-19T18:42:28;5.38;;;2.90;;
54985;SDS011;40885;53.070;6.228;2022-08-19T18:45:12;6.78;;;2.33;;
54985;SDS011;40885;53.070;6.228;2022-08-19T18:47:56;2.72;;;2.22;;
54985;SDS011;40885;53.070;6.228;2022-08-19T18:50:41;2.95;;;2.60;;
54985;SDS011;40885;53.070;6.228;2022-08-19T18:53:08;3.92;;;2.75;;
54985;SDS011;40885;53.070;6.228;2022-08-19T18:55:34;5.75;;;3.40;;
54985;SDS011;40885;53.070;6.228;2022-08-19T18:58:00;5.40;;;3.83;;
54985;SDS011;40885;53.070;6.228;2022-08-19T19:00:26;4.90;;;3.85;;
54985;SDS011;40885;53.070;6.228;2022-08-19T19:02:52;5.15;;;4.55;;
54985;SDS011;40885;53.070;6.228;2022-08-19T19:05:18;6.50;;;4.50;;
54985;SDS011;40885;53.070;6.228;2022-08-19T19:07:46;6.45;;;4.55;;
54985;SDS011;40885;53.070;6.228;2022-08-19T19:10:12;5.40;;;4.68;;
54985;SDS011;40885;53.070;6.228;2022-08-19T19:12:40;5.30;;;4.18;;
54985;SDS011;40885;53.070;6.228;2022-08-19T19:15:11;7.38;;;5.43;;
54985;SDS011;40885;53.070;6.228;2022-08-19T19:17:37;6.35;;;5.07;;
54985;SDS011;40885;53.070;6.228;2022-08-19T19:20:06;10.10;;;5.50;;
54985;SDS011;40885;53.070;6.228;2022-08-19T19:22:32;7.50;;;5.43;;
54985;SDS011;40885;53.070;6.228;2022-08-19T19:24:58;15.70;;;7.47;;
54985;SDS011;40885;53.070;6.228;2022-08-19T19:27:24;8.80;;;5.03;;
54985;SDS011;40885;53.070;6.228;2022-08-19T19:29:50;6.13;;;5.20;;
54985;SDS011;40885;53.070;6.228;2022-08-19T19:32:24;8.98;;;5.82;;
54985;SDS011;40885;53.070;6.228;2022-08-19T19:34:53;13.43;;;6.13;;
54985;SDS011;40885;53.070;6.228;2022-08-19T19:37:19;6.22;;;5.57;;
54985;SDS011;40885;53.070;6.228;2022-08-19T19:39:46;7.70;;;5.88;;
54985;SDS011;40885;53.070;6.228;2022-08-19T19:42:14;8.70;;;5.55;;
54985;SDS011;40885;53.070;6.228;2022-08-19T19:44:42;9.15;;;5.78;;
54985;SDS011;40885;53.070;6.228;2022-08-19T19:47:12;11.13;;;6.18;;
54985;SDS011;40885;53.070;6.228;2022-08-19T19:49:39;7.78;;;5.97;;
54985;SDS011;40885;53.070;6.228;2022-08-19T19:52:05;6.95;;;5.93;;
54985;SDS011;40885;53.070;6.228;2022-08-19T19:54:31;8.45;;;6.40;;
54985;SDS011;40885;53.070;6.228;2022-08-19T19:56:59;7.22;;;5.30;;
54985;SDS011;40885;53.070;6.228;2022-08-19T19:59:25;7.22;;;5.32;;
54985;SDS011;40885;53.070;6.228;2022-08-19T20:01:51;11.40;;;5.32;;
54985;SDS011;40885;53.070;6.228;2022-08-19T20:04:16;7.63;;;4.80;;
54985;SDS011;40885;53.070;6.228;2022-08-19T20:06:43;7.50;;;5.13;;
54985;SDS011;40885;53.070;6.228;2022-08-19T20:09:10;7.60;;;4.13;;
54985;SDS011;40885;53.070;6.228;2022-08-19T20:14:20;7.88;;;4.63;;
54985;SDS011;40885;53.070;6.228;2022-08-19T20:16:48;8.52;;;6.90;;
54985;SDS011;40885;53.070;6.228;2022-08-19T20:19:17;9.02;;;6.68;;
54985;SDS011;40885;53.070;6.228;2022-08-19T20:21:44;10.45;;;7.43;;
54985;SDS011;40885;53.070;6.228;2022-08-19T20:24:21;10.30;;;7.68;;
54985;SDS011;40885;53.070;6.228;2022-08-19T20:26:52;11.23;;;6.88;;
54985;SDS011;40885;53.070;6.228;2022-08-19T20:29:18;9.93;;;7.45;;
54985;SDS011;40885;53.070;6.228;2022-08-19T20:31:45;10.05;;;7.47;;
54985;SDS011;40885;53.070;6.228;2022-08-19T20:34:12;11.05;;;7.68;;
54985;SDS011;40885;53.070;6.228;2022-08-19T20:36:39;10.68;;;7.20;;
54985;SDS011;40885;53.070;6.228;2022-08-19T20:39:06;11.55;;;7.65;;
54985;SDS011;40885;53.070;6.228;2022-08-19T20:41:32;12.00;;;6.80;;
54985;SDS011;40885;53.070;6.228;2022-08-19T20:43:59;8.20;;;7.32;;
54985;SDS011;40885;53.070;6.228;2022-08-19T20:46:27;9.43;;;7.25;;
54985;SDS011;40885;53.070;6.228;2022-08-19T20:48:54;11.15;;;6.97;;
54985;SDS011;40885;53.070;6.228;2022-08-19T20:51:20;13.52;;;8.00;;
54985;SDS011;40885;53.070;6.228;2022-08-19T20:53:46;10.85;;;6.63;;
54985;SDS011;40885;53.070;6.228;2022-08-19T20:56:12;8.88;;;7.70;;
54985;SDS011;40885;53.070;6.228;2022-08-19T20:58:38;11.20;;;7.35;;
54985;SDS011;40885;53.070;6.228;2022-08-19T21:01:04;11.18;;;7.55;;
54985;SDS011;40885;53.070;6.228;2022-08-19T21:03:31;13.20;;;7.38;;
54985;SDS011;40885;53.070;6.228;2022-08-19T21:06:00;10.35;;;7.60;;
54985;SDS011;40885;53.070;6.228;2022-08-19T21:08:27;8.23;;;6.10;;
54985;SDS011;40885;53.070;6.228;2022-08-19T21:10:53;11.05;;;6.75;;
54985;SDS011;40885;53.070;6.228;2022-08-19T21:13:21;8.30;;;6.22;;
54985;SDS011;40885;53.070;6.228;2022-08-19T21:15:48;9.48;;;6.05;;
54985;SDS011;40885;53.070;6.228;2022-08-19T21:18:15;8.52;;;6.10;;
54985;SDS011;40885;53.070;6.228;2022-08-19T21:20:43;9.48;;;6.15;;
54985;SDS011;40885;53.070;6.228;2022-08-19T21:23:10;6.78;;;5.28;;
54985;SDS011;40885;53.070;6.228;2022-08-19T21:25:39;7.93;;;5.03;;
54985;SDS011;40885;53.070;6.228;2022-08-19T21:28:05;6.18;;;4.18;;
54985;SDS011;40885;53.070;6.228;2022-08-19T21:30:31;8.00;;;4.38;;
54985;SDS011;40885;53.070;6.228;2022-08-19T21:32:58;7.45;;;4.32;;
54985;SDS011;40885;53.070;6.228;2022-08-19T21:35:25;5.60;;;4.50;;
54985;SDS011;40885;53.070;6.228;2022-08-19T21:37:51;6.38;;;4.60;;
54985;SDS011;40885;53.070;6.228;2022-08-19T21:40:17;8.25;;;4.45;;
54985;SDS011;40885;53.070;6.228;2022-08-19T21:42:44;4.78;;;3.70;;
54985;SDS011;40885;53.070;6.228;2022-08-19T21:45:11;7.15;;;3.88;;
54985;SDS011;40885;53.070;6.228;2022-08-19T21:47:38;10.07;;;3.70;;
54985;SDS011;40885;53.070;6.228;2022-08-19T21:50:04;4.78;;;3.80;;
54985;SDS011;40885;53.070;6.228;2022-08-19T21:52:30;6.18;;;3.55;;
54985;SDS011;40885;53.070;6.228;2022-08-19T21:54:56;7.72;;;4.00;;
54985;SDS011;40885;53.070;6.228;2022-08-19T21:57:22;8.43;;;3.70;;
54985;SDS011;40885;53.070;6.228;2022-08-19T21:59:52;6.10;;;3.75;;
54985;SDS011;40885;53.070;6.228;2022-08-19T22:02:18;7.72;;;3.78;;
54985;SDS011;40885;53.070;6.228;2022-08-19T22:04:44;6.38;;;3.80;;
54985;SDS011;40885;53.070;6.228;2022-08-19T22:07:11;4.72;;;3.75;;
54985;SDS011;40885;53.070;6.228;2022-08-19T22:09:41;7.70;;;3.70;;
54985;SDS011;40885;53.070;6.228;2022-08-19T22:12:10;8.65;;;4.30;;
54985;SDS011;40885;53.070;6.228;2022-08-19T22:14:47;7.60;;;4.13;;
54985;SDS011;40885;53.070;6.228;2022-08-19T22:17:14;11.07;;;4.65;;
54985;SDS011;40885;53.070;6.228;2022-08-19T22:19:40;6.50;;;3.92;;
54985;SDS011;40885;53.070;6.228;2022-08-19T22:22:06;9.13;;;4.38;;
54985;SDS011;40885;53.070;6.228;2022-08-19T22:24:32;9.15;;;4.50;;
54985;SDS011;40885;53.070;6.228;2022-08-19T22:26:58;8.75;;;4.00;;
54985;SDS011;40885;53.070;6.228;2022-08-19T22:29:25;7.95;;;3.97;;
54985;SDS011;40885;53.070;6.228;2022-08-19T22:31:51;5.85;;;3.97;;
54985;SDS011;40885;53.070;6.228;2022-08-19T22:34:17;7.45;;;3.88;;
54985;SDS011;40885;53.070;6.228;2022-08-19T22:36:43;9.70;;;3.70;;
54985;SDS011;40885;53.070;6.228;2022-08-19T22:39:09;11.38;;;3.67;;
54985;SDS011;40885;53.070;6.228;2022-08-19T22:41:34;10.43;;;3.53;;
54985;SDS011;40885;53.070;6.228;2022-08-19T22:44:01;10.98;;;4.03;;
54985;SDS011;40885;53.070;6.228;2022-08-19T22:46:28;14.07;;;5.43;;
54985;SDS011;40885;53.070;6.228;2022-08-19T22:48:58;8.07;;;4.22;;
54985;SDS011;40885;53.070;6.228;2022-08-19T22:51:24;10.35;;;3.95;;
54985;SDS011;40885;53.070;6.228;2022-08-19T22:54:08;18.58;;;4.88;;
54985;SDS011;40885;53.070;6.228;2022-08-19T22:56:34;9.15;;;4.45;;
54985;SDS011;40885;53.070;6.228;2022-08-19T22:59:00;10.57;;;4.05;;
54985;SDS011;40885;53.070;6.228;2022-08-19T23:01:27;8.82;;;3.72;;
54985;SDS011;40885;53.070;6.228;2022-08-19T23:03:53;12.23;;;3.97;;
54985;SDS011;40885;53.070;6.228;2022-08-19T23:06:20;8.93;;;3.97;;
54985;SDS011;40885;53.070;6.228;2022-08-19T23:08:46;5.78;;;3.42;;
54985;SDS011;40885;53.070;6.228;2022-08-19T23:11:12;10.13;;;4.10;;
54985;SDS011;40885;53.070;6.228;2022-08-19T23:13:39;8.55;;;4.00;;
54985;SDS011;40885;53.070;6.228;2022-08-19T23:16:06;8.07;;;3.92;;
54985;SDS011;40885;53.070;6.228;2022-08-19T23:18:33;9.93;;;3.80;;
54985;SDS011;40885;53.070;6.228;2022-08-19T23:20:59;11.57;;;4.63;;
54985;SDS011;40885;53.070;6.228;2022-08-19T23:23:25;11.23;;;5.00;;
54985;SDS011;40885;53.070;6.228;2022-08-19T23:25:52;17.73;;;5.10;;
54985;SDS011;40885;53.070;6.228;2022-08-19T23:28:19;13.52;;;4.43;;
54985;SDS011;40885;53.070;6.228;2022-08-19T23:31:12;10.55;;;4.18;;
54985;SDS011;40885;53.070;6.228;2022-08-19T23:33:40;7.45;;;3.72;;
54985;SDS011;40885;53.070;6.228;2022-08-19T23:36:08;15.55;;;4.50;;
54985;SDS011;40885;53.070;6.228;2022-08-19T23:38:39;11.35;;;4.47;;
54985;SDS011;40885;53.070;6.228;2022-08-19T23:41:07;14.38;;;4.07;;
54985;SDS011;40885;53.070;6.228;2022-08-19T23:43:34;13.00;;;5.50;;
54985;SDS011;40885;53.070;6.228;2022-08-19T23:46:02;15.60;;;4.93;;
54985;SDS011;40885;53.070;6.228;2022-08-19T23:48:30;12.65;;;4.28;;
54985;SDS011;40885;53.070;6.228;2022-08-19T23:50:57;20.27;;;6.25;;
54985;SDS011;40885;53.070;6.228;2022-08-19T23:53:25;12.68;;;4.25;;
54985;SDS011;40885;53.070;6.228;2022-08-19T23:55:51;10.05;;;3.55;;
54985;SDS011;40885;53.070;6.228;2022-08-19T23:58:17;6.20;;;3.10;;
